sensor_id;sensor_type;location;lat;lon;timestamp;P1;durP1;ratioP1;P2;durP2;ratioP2
64367;SDS011;50692;53.314;-6.300;2023-08-24T00:00:40;5.10;;;1.85;;
64367;SDS011;50692;53.314;-6.300;2023-08-24T00:03:26;7.43;;;2.40;;
64367;SDS011;50692;53.314;-6.300;2023-08-24T00:06:12;5.63;;;2.70;;
64367;SDS011;50692;53.314;-6.300;2023-08-24T00:08:58;5.90;;;2.05;;
64367;SDS011;50692;53.314;-6.300;2023-08-24T00:11:46;5.53;;;1.95;;
64367;SDS011;50692;53.314;-6.300;2023-08-24T00:14:32;3.20;;;1.70;;
64367;SDS011;50692;53.314;-6.300;2023-08-24T00:17:17;3.30;;;1.88;;
64367;SDS011;50692;53.314;-6.300;2023-08-24T00:20:04;5.38;;;2.28;;
64367;SDS011;50692;53.314;-6.300;2023-08-24T00:25:38;4.03;;;1.98;;
64367;SDS011;50692;53.314;-6.300;2023-08-24T00:28:26;4.70;;;1.98;;
64367;SDS011;50692;53.314;-6.300;2023-08-24T00:31:12;3.55;;;1.70;;
64367;SDS011;50692;53.314;-6.300;2023-08-24T00:33:58;4.10;;;1.75;;
64367;SDS011;50692;53.314;-6.300;2023-08-24T00:36:44;6.30;;;1.83;;
64367;SDS011;50692;53.314;-6.300;2023-08-24T00:39:30;6.30;;;2.25;;
64367;SDS011;50692;53.314;-6.300;2023-08-24T00:42:17;8.65;;;2.38;;
64367;SDS011;50692;53.314;-6.300;2023-08-24T00:45:03;5.38;;;2.67;;
64367;SDS011;50692;53.314;-6.300;2023-08-24T00:47:49;6.15;;;2.38;;
64367;SDS011;50692;53.314;-6.300;2023-08-24T00:50:37;3.78;;;2.00;;
64367;SDS011;50692;53.314;-6.300;2023-08-24T00:53:23;6.57;;;2.63;;
64367;SDS011;50692;53.314;-6.300;2023-08-24T00:56:12;7.85;;;2.47;;
64367;SDS011;50692;53.314;-6.300;2023-08-24T00:58:58;6.63;;;3.03;;
64367;SDS011;50692;53.314;-6.300;2023-08-24T01:01:44;5.22;;;2.03;;
64367;SDS011;50692;53.314;-6.300;2023-08-24T01:04:32;5.82;;;2.15;;
64367;SDS011;50692;53.314;-6.300;2023-08-24T01:07:18;6.43;;;2.38;;
64367;SDS011;50692;53.314;-6.300;2023-08-24T01:10:04;3.85;;;1.98;;
64367;SDS011;50692;53.314;-6.300;2023-08-24T01:16:11;6.55;;;2.05;;
64367;SDS011;50692;53.314;-6.300;2023-08-24T01:19:01;5.18;;;2.10;;
64367;SDS011;50692;53.314;-6.300;2023-08-24T01:21:50;5.95;;;2.17;;
64367;SDS011;50692;53.314;-6.300;2023-08-24T01:24:45;4.70;;;2.10;;
64367;SDS011;50692;53.314;-6.300;2023-08-24T01:27:38;5.65;;;2.47;;
64367;SDS011;50692;53.314;-6.300;2023-08-24T01:30:26;3.33;;;1.70;;
64367;SDS011;50692;53.314;-6.300;2023-08-24T01:33:12;4.82;;;1.85;;
64367;SDS011;50692;53.314;-6.300;2023-08-24T01:35:58;4.15;;;1.60;;
64367;SDS011;50692;53.314;-6.300;2023-08-24T01:38:45;3.80;;;1.80;;
64367;SDS011;50692;53.314;-6.300;2023-08-24T01:41:41;4.85;;;1.88;;
64367;SDS011;50692;53.314;-6.300;2023-08-24T01:44:33;5.82;;;2.35;;
64367;SDS011;50692;53.314;-6.300;2023-08-24T01:47:22;4.38;;;1.88;;
64367;SDS011;50692;53.314;-6.300;2023-08-24T01:50:10;4.85;;;1.85;;
64367;SDS011;50692;53.314;-6.300;2023-08-24T01:52:56;4.10;;;1.70;;
64367;SDS011;50692;53.314;-6.300;2023-08-24T01:55:44;2.95;;;1.75;;
64367;SDS011;50692;53.314;-6.300;2023-08-24T01:58:31;8.13;;;1.92;;
64367;SDS011;50692;53.314;-6.300;2023-08-24T02:01:16;4.72;;;2.10;;
64367;SDS011;50692;53.314;-6.300;2023-08-24T02:04:02;3.00;;;1.85;;
64367;SDS011;50692;53.314;-6.300;2023-08-24T02:06:48;6.20;;;2.25;;
64367;SDS011;50692;53.314;-6.300;2023-08-24T02:09:34;4.40;;;1.60;;
64367;SDS011;50692;53.314;-6.300;2023-08-24T02:12:20;4.57;;;1.83;;
64367;SDS011;50692;53.314;-6.300;2023-08-24T02:15:06;3.50;;;1.55;;
64367;SDS011;50692;53.314;-6.300;2023-08-24T02:17:52;3.70;;;2.00;;
64367;SDS011;50692;53.314;-6.300;2023-08-24T02:20:38;8.07;;;2.92;;
64367;SDS011;50692;53.314;-6.300;2023-08-24T02:23:24;2.72;;;1.52;;
64367;SDS011;50692;53.314;-6.300;2023-08-24T02:26:10;4.95;;;1.88;;
64367;SDS011;50692;53.314;-6.300;2023-08-24T02:28:56;5.32;;;2.10;;
64367;SDS011;50692;53.314;-6.300;2023-08-24T02:31:42;6.78;;;2.22;;
64367;SDS011;50692;53.314;-6.300;2023-08-24T02:34:28;3.38;;;1.83;;
64367;SDS011;50692;53.314;-6.300;2023-08-24T02:37:14;3.72;;;2.10;;
64367;SDS011;50692;53.314;-6.300;2023-08-24T02:40:00;3.47;;;2.20;;
64367;SDS011;50692;53.314;-6.300;2023-08-24T02:42:46;5.63;;;2.08;;
64367;SDS011;50692;53.314;-6.300;2023-08-24T02:45:32;7.07;;;2.10;;
64367;SDS011;50692;53.314;-6.300;2023-08-24T02:48:17;4.18;;;1.90;;
64367;SDS011;50692;53.314;-6.300;2023-08-24T02:51:04;8.10;;;2.13;;
64367;SDS011;50692;53.314;-6.300;2023-08-24T02:53:50;3.08;;;1.70;;
64367;SDS011;50692;53.314;-6.300;2023-08-24T02:56:36;5.88;;;1.92;;
64367;SDS011;50692;53.314;-6.300;2023-08-24T02:59:22;5.40;;;1.85;;
64367;SDS011;50692;53.314;-6.300;2023-08-24T03:02:08;3.45;;;1.88;;
64367;SDS011;50692;53.314;-6.300;2023-08-24T03:04:54;5.60;;;2.03;;
64367;SDS011;50692;53.314;-6.300;2023-08-24T03:07:40;5.10;;;1.80;;
64367;SDS011;50692;53.314;-6.300;2023-08-24T03:10:26;4.05;;;1.70;;
64367;SDS011;50692;53.314;-6.300;2023-08-24T03:13:13;4.05;;;2.03;;
64367;SDS011;50692;53.314;-6.300;2023-08-24T03:16:02;7.05;;;2.20;;
64367;SDS011;50692;53.314;-6.300;2023-08-24T03:18:49;5.63;;;2.25;;
64367;SDS011;50692;53.314;-6.300;2023-08-24T03:21:35;2.67;;;1.63;;
64367;SDS011;50692;53.314;-6.300;2023-08-24T03:24:20;4.25;;;1.95;;
64367;SDS011;50692;53.314;-6.300;2023-08-24T03:27:06;3.10;;;1.92;;
64367;SDS011;50692;53.314;-6.300;2023-08-24T03:29:53;3.65;;;2.28;;
64367;SDS011;50692;53.314;-6.300;2023-08-24T03:32:39;3.03;;;1.95;;
64367;SDS011;50692;53.314;-6.300;2023-08-24T03:35:25;3.92;;;1.75;;
64367;SDS011;50692;53.314;-6.300;2023-08-24T03:38:11;4.97;;;1.98;;
64367;SDS011;50692;53.314;-6.300;2023-08-24T03:41:01;7.10;;;2.88;;
64367;SDS011;50692;53.314;-6.300;2023-08-24T03:43:48;4.43;;;2.05;;
64367;SDS011;50692;53.314;-6.300;2023-08-24T03:46:34;4.45;;;2.05;;
64367;SDS011;50692;53.314;-6.300;2023-08-24T03:49:19;3.88;;;1.60;;
64367;SDS011;50692;53.314;-6.300;2023-08-24T03:52:05;2.67;;;1.52;;
64367;SDS011;50692;53.314;-6.300;2023-08-24T03:54:51;4.45;;;1.75;;
64367;SDS011;50692;53.314;-6.300;2023-08-24T03:57:37;4.85;;;2.20;;
64367;SDS011;50692;53.314;-6.300;2023-08-24T04:00:25;5.65;;;2.92;;
64367;SDS011;50692;53.314;-6.300;2023-08-24T04:03:11;6.55;;;2.72;;
64367;SDS011;50692;53.314;-6.300;2023-08-24T04:05:58;4.30;;;2.35;;
64367;SDS011;50692;53.314;-6.300;2023-08-24T04:08:44;5.40;;;2.10;;
64367;SDS011;50692;53.314;-6.300;2023-08-24T04:11:30;4.38;;;1.90;;
64367;SDS011;50692;53.314;-6.300;2023-08-24T04:14:16;6.85;;;2.60;;
64367;SDS011;50692;53.314;-6.300;2023-08-24T04:17:01;4.97;;;2.30;;
64367;SDS011;50692;53.314;-6.300;2023-08-24T04:19:47;4.68;;;2.30;;
64367;SDS011;50692;53.314;-6.300;2023-08-24T04:22:33;5.45;;;1.60;;
64367;SDS011;50692;53.314;-6.300;2023-08-24T04:25:19;6.75;;;1.98;;
64367;SDS011;50692;53.314;-6.300;2023-08-24T04:28:05;2.72;;;1.70;;
64367;SDS011;50692;53.314;-6.300;2023-08-24T04:30:54;4.43;;;1.60;;
64367;SDS011;50692;53.314;-6.300;2023-08-24T04:33:42;2.90;;;1.83;;
64367;SDS011;50692;53.314;-6.300;2023-08-24T04:36:28;2.97;;;1.63;;
64367;SDS011;50692;53.314;-6.300;2023-08-24T04:39:14;3.53;;;1.90;;
64367;SDS011;50692;53.314;-6.300;2023-08-24T04:41:59;3.20;;;1.90;;
64367;SDS011;50692;53.314;-6.300;2023-08-24T04:44:45;5.90;;;2.10;;
64367;SDS011;50692;53.314;-6.300;2023-08-24T04:47:31;4.70;;;1.95;;
64367;SDS011;50692;53.314;-6.300;2023-08-24T04:50:17;5.63;;;2.08;;
64367;SDS011;50692;53.314;-6.300;2023-08-24T04:53:02;6.65;;;2.22;;
64367;SDS011;50692;53.314;-6.300;2023-08-24T04:55:48;4.75;;;1.95;;
64367;SDS011;50692;53.314;-6.300;2023-08-24T04:58:34;3.42;;;1.90;;
64367;SDS011;50692;53.314;-6.300;2023-08-24T05:01:20;7.10;;;2.25;;
64367;SDS011;50692;53.314;-6.300;2023-08-24T05:04:06;3.92;;;1.77;;
64367;SDS011;50692;53.314;-6.300;2023-08-24T05:06:52;5.35;;;2.20;;
64367;SDS011;50692;53.314;-6.300;2023-08-24T05:09:37;5.18;;;2.63;;
64367;SDS011;50692;53.314;-6.300;2023-08-24T05:12:23;6.32;;;3.40;;
64367;SDS011;50692;53.314;-6.300;2023-08-24T05:15:09;5.75;;;3.63;;
64367;SDS011;50692;53.314;-6.300;2023-08-24T05:17:55;7.85;;;3.78;;
64367;SDS011;50692;53.314;-6.300;2023-08-24T05:20:41;7.85;;;3.13;;
64367;SDS011;50692;53.314;-6.300;2023-08-24T05:23:27;4.28;;;2.80;;
64367;SDS011;50692;53.314;-6.300;2023-08-24T05:26:13;5.97;;;2.03;;
64367;SDS011;50692;53.314;-6.300;2023-08-24T05:28:59;4.40;;;2.20;;
64367;SDS011;50692;53.314;-6.300;2023-08-24T05:31:45;5.15;;;2.10;;
64367;SDS011;50692;53.314;-6.300;2023-08-24T05:34:30;5.45;;;2.08;;
64367;SDS011;50692;53.314;-6.300;2023-08-24T05:37:17;4.28;;;2.17;;
64367;SDS011;50692;53.314;-6.300;2023-08-24T05:40:03;4.78;;;2.22;;
64367;SDS011;50692;53.314;-6.300;2023-08-24T05:42:50;6.38;;;2.33;;
64367;SDS011;50692;53.314;-6.300;2023-08-24T05:45:36;5.85;;;2.00;;
64367;SDS011;50692;53.314;-6.300;2023-08-24T05:48:24;5.95;;;2.30;;
64367;SDS011;50692;53.314;-6.300;2023-08-24T05:51:10;3.63;;;2.20;;
64367;SDS011;50692;53.314;-6.300;2023-08-24T05:53:57;3.88;;;1.90;;
64367;SDS011;50692;53.314;-6.300;2023-08-24T05:56:43;7.65;;;2.60;;
64367;SDS011;50692;53.314;-6.300;2023-08-24T05:59:33;5.82;;;1.90;;
64367;SDS011;50692;53.314;-6.300;2023-08-24T06:02:19;5.07;;;2.20;;
64367;SDS011;50692;53.314;-6.300;2023-08-24T06:05:05;5.63;;;2.30;;
64367;SDS011;50692;53.314;-6.300;2023-08-24T06:07:52;7.45;;;2.47;;
64367;SDS011;50692;53.314;-6.300;2023-08-24T06:10:38;4.70;;;2.50;;
64367;SDS011;50692;53.314;-6.300;2023-08-24T06:13:23;5.82;;;2.20;;
64367;SDS011;50692;53.314;-6.300;2023-08-24T06:16:09;5.85;;;2.70;;
64367;SDS011;50692;53.314;-6.300;2023-08-24T06:18:55;6.22;;;2.83;;
64367;SDS011;50692;53.314;-6.300;2023-08-24T06:21:41;7.40;;;2.88;;
64367;SDS011;50692;53.314;-6.300;2023-08-24T06:24:27;4.07;;;2.50;;
64367;SDS011;50692;53.314;-6.300;2023-08-24T06:27:13;6.55;;;2.38;;
64367;SDS011;50692;53.314;-6.300;2023-08-24T06:29:58;5.75;;;2.47;;
64367;SDS011;50692;53.314;-6.300;2023-08-24T06:32:44;5.15;;;2.40;;
64367;SDS011;50692;53.314;-6.300;2023-08-24T06:35:30;6.55;;;2.42;;
64367;SDS011;50692;53.314;-6.300;2023-08-24T06:38:16;5.20;;;2.65;;
64367;SDS011;50692;53.314;-6.300;2023-08-24T06:41:02;4.38;;;2.30;;
64367;SDS011;50692;53.314;-6.300;2023-08-24T06:43:48;4.88;;;2.72;;
64367;SDS011;50692;53.314;-6.300;2023-08-24T06:46:34;5.80;;;2.28;;
64367;SDS011;50692;53.314;-6.300;2023-08-24T06:49:19;7.68;;;2.50;;
64367;SDS011;50692;53.314;-6.300;2023-08-24T06:52:05;4.45;;;2.63;;
64367;SDS011;50692;53.314;-6.300;2023-08-24T06:54:51;5.82;;;2.70;;
64367;SDS011;50692;53.314;-6.300;2023-08-24T06:57:39;5.50;;;2.50;;
64367;SDS011;50692;53.314;-6.300;2023-08-24T07:00:26;6.30;;;2.70;;
64367;SDS011;50692;53.314;-6.300;2023-08-24T07:03:11;7.55;;;2.80;;
64367;SDS011;50692;53.314;-6.300;2023-08-24T07:05:57;6.57;;;2.78;;
64367;SDS011;50692;53.314;-6.300;2023-08-24T07:08:43;6.32;;;2.53;;
64367;SDS011;50692;53.314;-6.300;2023-08-24T07:11:29;6.22;;;2.47;;
64367;SDS011;50692;53.314;-6.300;2023-08-24T07:14:15;5.60;;;2.72;;
64367;SDS011;50692;53.314;-6.300;2023-08-24T07:17:01;4.70;;;2.90;;
64367;SDS011;50692;53.314;-6.300;2023-08-24T07:19:46;6.47;;;2.83;;
64367;SDS011;50692;53.314;-6.300;2023-08-24T07:22:32;8.45;;;3.15;;
64367;SDS011;50692;53.314;-6.300;2023-08-24T07:25:18;5.80;;;3.10;;
64367;SDS011;50692;53.314;-6.300;2023-08-24T07:28:04;8.73;;;3.20;;
64367;SDS011;50692;53.314;-6.300;2023-08-24T07:30:50;8.05;;;3.38;;
64367;SDS011;50692;53.314;-6.300;2023-08-24T07:33:38;8.32;;;3.42;;
64367;SDS011;50692;53.314;-6.300;2023-08-24T07:36:24;6.57;;;2.92;;
64367;SDS011;50692;53.314;-6.300;2023-08-24T07:39:10;7.18;;;2.42;;
64367;SDS011;50692;53.314;-6.300;2023-08-24T07:41:57;5.63;;;2.85;;
64367;SDS011;50692;53.314;-6.300;2023-08-24T07:44:42;4.95;;;2.25;;
64367;SDS011;50692;53.314;-6.300;2023-08-24T07:47:28;5.20;;;2.78;;
64367;SDS011;50692;53.314;-6.300;2023-08-24T07:50:14;5.00;;;2.30;;
64367;SDS011;50692;53.314;-6.300;2023-08-24T07:53:01;5.50;;;1.90;;
64367;SDS011;50692;53.314;-6.300;2023-08-24T07:55:47;3.58;;;2.22;;
64367;SDS011;50692;53.314;-6.300;2023-08-24T07:58:33;4.47;;;1.55;;
64367;SDS011;50692;53.314;-6.300;2023-08-24T08:01:19;3.45;;;1.70;;
64367;SDS011;50692;53.314;-6.300;2023-08-24T08:04:04;3.70;;;1.95;;
64367;SDS011;50692;53.314;-6.300;2023-08-24T08:06:51;4.22;;;1.60;;
64367;SDS011;50692;53.314;-6.300;2023-08-24T08:09:37;2.28;;;1.20;;
64367;SDS011;50692;53.314;-6.300;2023-08-24T08:12:22;3.85;;;1.38;;
64367;SDS011;50692;53.314;-6.300;2023-08-24T08:15:08;2.78;;;1.15;;
64367;SDS011;50692;53.314;-6.300;2023-08-24T08:17:54;5.28;;;1.25;;
64367;SDS011;50692;53.314;-6.300;2023-08-24T08:20:40;5.30;;;1.98;;
64367;SDS011;50692;53.314;-6.300;2023-08-24T08:23:26;3.63;;;1.30;;
64367;SDS011;50692;53.314;-6.300;2023-08-24T08:26:12;2.08;;;1.33;;
64367;SDS011;50692;53.314;-6.300;2023-08-24T08:28:59;3.83;;;1.35;;
64367;SDS011;50692;53.314;-6.300;2023-08-24T08:31:44;5.00;;;1.10;;
64367;SDS011;50692;53.314;-6.300;2023-08-24T08:34:30;4.22;;;1.17;;
64367;SDS011;50692;53.314;-6.300;2023-08-24T08:37:16;3.38;;;0.98;;
64367;SDS011;50692;53.314;-6.300;2023-08-24T08:40:03;4.43;;;1.05;;
64367;SDS011;50692;53.314;-6.300;2023-08-24T08:42:51;3.97;;;1.00;;
64367;SDS011;50692;53.314;-6.300;2023-08-24T08:45:37;3.22;;;1.17;;
64367;SDS011;50692;53.314;-6.300;2023-08-24T08:48:23;3.88;;;1.40;;
64367;SDS011;50692;53.314;-6.300;2023-08-24T08:51:10;3.17;;;1.42;;
64367;SDS011;50692;53.314;-6.300;2023-08-24T08:53:58;3.07;;;1.30;;
64367;SDS011;50692;53.314;-6.300;2023-08-24T08:56:45;2.78;;;1.20;;
64367;SDS011;50692;53.314;-6.300;2023-08-24T08:59:32;5.55;;;1.45;;
64367;SDS011;50692;53.314;-6.300;2023-08-24T09:02:19;4.85;;;1.23;;
64367;SDS011;50692;53.314;-6.300;2023-08-24T09:05:07;2.30;;;1.10;;
64367;SDS011;50692;53.314;-6.300;2023-08-24T09:07:53;3.38;;;1.38;;
64367;SDS011;50692;53.314;-6.300;2023-08-24T09:10:40;3.63;;;1.33;;
64367;SDS011;50692;53.314;-6.300;2023-08-24T09:13:26;3.80;;;1.10;;
64367;SDS011;50692;53.314;-6.300;2023-08-24T09:16:12;4.97;;;1.42;;
64367;SDS011;50692;53.314;-6.300;2023-08-24T09:19:01;3.75;;;1.23;;
64367;SDS011;50692;53.314;-6.300;2023-08-24T09:21:54;3.63;;;1.40;;
64367;SDS011;50692;53.314;-6.300;2023-08-24T09:24:42;3.58;;;1.00;;
64367;SDS011;50692;53.314;-6.300;2023-08-24T09:27:28;1.35;;;1.00;;
64367;SDS011;50692;53.314;-6.300;2023-08-24T09:30:14;2.40;;;0.90;;
64367;SDS011;50692;53.314;-6.300;2023-08-24T09:33:04;4.28;;;1.30;;
64367;SDS011;50692;53.314;-6.300;2023-08-24T09:35:55;3.25;;;1.00;;
64367;SDS011;50692;53.314;-6.300;2023-08-24T09:38:46;2.90;;;1.08;;
64367;SDS011;50692;53.314;-6.300;2023-08-24T09:41:40;1.42;;;0.88;;
64367;SDS011;50692;53.314;-6.300;2023-08-24T09:44:35;4.15;;;0.80;;
64367;SDS011;50692;53.314;-6.300;2023-08-24T09:47:21;2.58;;;0.77;;
64367;SDS011;50692;53.314;-6.300;2023-08-24T09:50:07;1.25;;;0.70;;
64367;SDS011;50692;53.314;-6.300;2023-08-24T09:52:54;1.17;;;0.70;;
64367;SDS011;50692;53.314;-6.300;2023-08-24T09:55:59;3.05;;;0.75;;
64367;SDS011;50692;53.314;-6.300;2023-08-24T09:58:46;2.15;;;0.80;;
64367;SDS011;50692;53.314;-6.300;2023-08-24T10:01:35;2.10;;;1.00;;
64367;SDS011;50692;53.314;-6.300;2023-08-24T10:04:23;2.58;;;0.90;;
64367;SDS011;50692;53.314;-6.300;2023-08-24T10:07:10;1.90;;;0.90;;
64367;SDS011;50692;53.314;-6.300;2023-08-24T10:10:02;2.30;;;1.20;;
64367;SDS011;50692;53.314;-6.300;2023-08-24T10:12:51;1.45;;;0.80;;
64367;SDS011;50692;53.314;-6.300;2023-08-24T10:15:44;2.58;;;0.90;;
64367;SDS011;50692;53.314;-6.300;2023-08-24T10:18:32;2.10;;;0.70;;
64367;SDS011;50692;53.314;-6.300;2023-08-24T10:21:19;1.30;;;0.63;;
64367;SDS011;50692;53.314;-6.300;2023-08-24T10:24:05;1.48;;;0.88;;
64367;SDS011;50692;53.314;-6.300;2023-08-24T10:26:51;2.65;;;1.00;;
64367;SDS011;50692;53.314;-6.300;2023-08-24T10:29:40;2.50;;;0.90;;
64367;SDS011;50692;53.314;-6.300;2023-08-24T10:32:26;2.92;;;0.80;;
64367;SDS011;50692;53.314;-6.300;2023-08-24T10:35:12;1.58;;;0.60;;
64367;SDS011;50692;53.314;-6.300;2023-08-24T10:38:01;2.13;;;0.80;;
64367;SDS011;50692;53.314;-6.300;2023-08-24T10:40:47;1.73;;;0.60;;
64367;SDS011;50692;53.314;-6.300;2023-08-24T10:43:48;1.38;;;0.57;;
64367;SDS011;50692;53.314;-6.300;2023-08-24T10:46:35;1.15;;;0.70;;
64367;SDS011;50692;53.314;-6.300;2023-08-24T10:49:22;3.00;;;0.80;;
64367;SDS011;50692;53.314;-6.300;2023-08-24T10:55:22;1.40;;;0.77;;
64367;SDS011;50692;53.314;-6.300;2023-08-24T10:58:10;1.42;;;0.77;;
64367;SDS011;50692;53.314;-6.300;2023-08-24T11:01:02;1.52;;;0.50;;
64367;SDS011;50692;53.314;-6.300;2023-08-24T11:03:55;1.05;;;0.70;;
64367;SDS011;50692;53.314;-6.300;2023-08-24T11:06:53;1.33;;;0.52;;
64367;SDS011;50692;53.314;-6.300;2023-08-24T11:09:44;1.90;;;1.00;;
64367;SDS011;50692;53.314;-6.300;2023-08-24T11:13:03;1.17;;;0.73;;
64367;SDS011;50692;53.314;-6.300;2023-08-24T11:15:51;1.90;;;0.73;;
64367;SDS011;50692;53.314;-6.300;2023-08-24T11:18:40;2.63;;;0.68;;
64367;SDS011;50692;53.314;-6.300;2023-08-24T11:21:25;2.13;;;0.80;;
64367;SDS011;50692;53.314;-6.300;2023-08-24T11:24:12;2.80;;;1.00;;
64367;SDS011;50692;53.314;-6.300;2023-08-24T11:26:59;2.17;;;0.68;;
64367;SDS011;50692;53.314;-6.300;2023-08-24T11:29:57;2.10;;;0.70;;
64367;SDS011;50692;53.314;-6.300;2023-08-24T11:32:43;1.83;;;0.90;;
64367;SDS011;50692;53.314;-6.300;2023-08-24T11:35:34;1.77;;;0.85;;
64367;SDS011;50692;53.314;-6.300;2023-08-24T11:38:22;1.17;;;0.60;;
64367;SDS011;50692;53.314;-6.300;2023-08-24T11:41:14;1.88;;;0.70;;
64367;SDS011;50692;53.314;-6.300;2023-08-24T11:44:02;2.45;;;1.00;;
64367;SDS011;50692;53.314;-6.300;2023-08-24T11:46:47;2.90;;;0.70;;
64367;SDS011;50692;53.314;-6.300;2023-08-24T11:49:33;1.45;;;0.80;;
64367;SDS011;50692;53.314;-6.300;2023-08-24T11:52:19;1.33;;;0.43;;
64367;SDS011;50692;53.314;-6.300;2023-08-24T11:55:05;2.00;;;0.50;;
64367;SDS011;50692;53.314;-6.300;2023-08-24T11:57:52;2.25;;;0.60;;
64367;SDS011;50692;53.314;-6.300;2023-08-24T12:00:38;0.45;;;0.45;;
64367;SDS011;50692;53.314;-6.300;2023-08-24T12:03:24;1.25;;;0.50;;
64367;SDS011;50692;53.314;-6.300;2023-08-24T12:06:11;0.52;;;0.52;;
64367;SDS011;50692;53.314;-6.300;2023-08-24T12:08:58;2.73;;;0.70;;
64367;SDS011;50692;53.314;-6.300;2023-08-24T12:11:44;1.33;;;0.50;;
64367;SDS011;50692;53.314;-6.300;2023-08-24T12:14:39;1.00;;;0.40;;
64367;SDS011;50692;53.314;-6.300;2023-08-24T12:17:25;0.80;;;0.45;;
64367;SDS011;50692;53.314;-6.300;2023-08-24T12:20:21;1.15;;;0.50;;
64367;SDS011;50692;53.314;-6.300;2023-08-24T12:23:07;1.35;;;0.50;;
64367;SDS011;50692;53.314;-6.300;2023-08-24T12:25:55;1.92;;;0.50;;
64367;SDS011;50692;53.314;-6.300;2023-08-24T12:28:41;0.80;;;0.35;;
64367;SDS011;50692;53.314;-6.300;2023-08-24T12:31:27;1.02;;;0.45;;
64367;SDS011;50692;53.314;-6.300;2023-08-24T12:34:14;0.75;;;0.32;;
64367;SDS011;50692;53.314;-6.300;2023-08-24T12:37:00;1.70;;;0.73;;
64367;SDS011;50692;53.314;-6.300;2023-08-24T12:39:46;0.80;;;0.73;;
64367;SDS011;50692;53.314;-6.300;2023-08-24T12:42:34;0.90;;;0.75;;
64367;SDS011;50692;53.314;-6.300;2023-08-24T12:45:20;0.80;;;0.40;;
64367;SDS011;50692;53.314;-6.300;2023-08-24T12:48:06;1.02;;;0.40;;
64367;SDS011;50692;53.314;-6.300;2023-08-24T12:50:52;1.80;;;0.50;;
64367;SDS011;50692;53.314;-6.300;2023-08-24T12:53:38;0.73;;;0.50;;
64367;SDS011;50692;53.314;-6.300;2023-08-24T12:56:24;0.57;;;0.30;;
64367;SDS011;50692;53.314;-6.300;2023-08-24T12:59:10;0.30;;;0.20;;
64367;SDS011;50692;53.314;-6.300;2023-08-24T13:01:57;1.35;;;0.40;;
64367;SDS011;50692;53.314;-6.300;2023-08-24T13:04:43;1.55;;;0.40;;
64367;SDS011;50692;53.314;-6.300;2023-08-24T13:07:28;1.63;;;0.45;;
64367;SDS011;50692;53.314;-6.300;2023-08-24T13:10:14;0.60;;;0.40;;
64367;SDS011;50692;53.314;-6.300;2023-08-24T13:13:01;0.95;;;0.30;;
64367;SDS011;50692;53.314;-6.300;2023-08-24T13:15:49;0.60;;;0.35;;
64367;SDS011;50692;53.314;-6.300;2023-08-24T13:18:36;1.38;;;0.40;;
64367;SDS011;50692;53.314;-6.300;2023-08-24T13:21:21;1.27;;;0.30;;
64367;SDS011;50692;53.314;-6.300;2023-08-24T13:24:07;0.57;;;0.45;;
64367;SDS011;50692;53.314;-6.300;2023-08-24T13:26:53;3.45;;;0.60;;
64367;SDS011;50692;53.314;-6.300;2023-08-24T13:29:42;0.93;;;0.50;;
64367;SDS011;50692;53.314;-6.300;2023-08-24T13:32:28;1.95;;;0.43;;
64367;SDS011;50692;53.314;-6.300;2023-08-24T13:35:14;1.25;;;0.60;;
64367;SDS011;50692;53.314;-6.300;2023-08-24T13:38:00;2.22;;;0.82;;
64367;SDS011;50692;53.314;-6.300;2023-08-24T13:40:46;2.88;;;0.50;;
64367;SDS011;50692;53.314;-6.300;2023-08-24T13:43:31;2.88;;;0.70;;
64367;SDS011;50692;53.314;-6.300;2023-08-24T13:46:17;1.52;;;0.50;;
64367;SDS011;50692;53.314;-6.300;2023-08-24T13:49:03;1.40;;;0.60;;
64367;SDS011;50692;53.314;-6.300;2023-08-24T13:51:49;1.83;;;1.17;;
64367;SDS011;50692;53.314;-6.300;2023-08-24T13:54:35;1.30;;;0.50;;
64367;SDS011;50692;53.314;-6.300;2023-08-24T13:57:21;0.80;;;0.35;;
64367;SDS011;50692;53.314;-6.300;2023-08-24T14:00:07;0.57;;;0.32;;
64367;SDS011;50692;53.314;-6.300;2023-08-24T14:02:54;0.93;;;0.50;;
64367;SDS011;50692;53.314;-6.300;2023-08-24T14:05:40;1.00;;;0.50;;
64367;SDS011;50692;53.314;-6.300;2023-08-24T14:08:25;1.27;;;0.40;;
64367;SDS011;50692;53.314;-6.300;2023-08-24T14:11:11;1.50;;;0.50;;
64367;SDS011;50692;53.314;-6.300;2023-08-24T14:13:58;0.40;;;0.40;;
64367;SDS011;50692;53.314;-6.300;2023-08-24T14:16:44;0.98;;;0.50;;
64367;SDS011;50692;53.314;-6.300;2023-08-24T14:19:31;1.90;;;0.55;;
64367;SDS011;50692;53.314;-6.300;2023-08-24T14:22:17;2.90;;;0.50;;
64367;SDS011;50692;53.314;-6.300;2023-08-24T14:25:02;2.05;;;0.50;;
64367;SDS011;50692;53.314;-6.300;2023-08-24T14:27:48;1.02;;;0.40;;
64367;SDS011;50692;53.314;-6.300;2023-08-24T14:30:34;0.60;;;0.28;;
64367;SDS011;50692;53.314;-6.300;2023-08-24T14:33:20;0.98;;;0.40;;
64367;SDS011;50692;53.314;-6.300;2023-08-24T14:36:06;0.75;;;0.60;;
64367;SDS011;50692;53.314;-6.300;2023-08-24T14:38:52;0.65;;;0.43;;
64367;SDS011;50692;53.314;-6.300;2023-08-24T14:41:37;0.55;;;0.38;;
64367;SDS011;50692;53.314;-6.300;2023-08-24T14:44:23;1.23;;;0.40;;
64367;SDS011;50692;53.314;-6.300;2023-08-24T14:47:09;1.38;;;0.40;;
64367;SDS011;50692;53.314;-6.300;2023-08-24T14:49:55;2.10;;;0.50;;
64367;SDS011;50692;53.314;-6.300;2023-08-24T14:52:41;0.90;;;0.40;;
64367;SDS011;50692;53.314;-6.300;2023-08-24T14:55:26;0.88;;;0.35;;
64367;SDS011;50692;53.314;-6.300;2023-08-24T14:58:12;0.63;;;0.30;;
64367;SDS011;50692;53.314;-6.300;2023-08-24T15:00:58;1.48;;;0.70;;
64367;SDS011;50692;53.314;-6.300;2023-08-24T15:03:44;0.75;;;0.40;;
64367;SDS011;50692;53.314;-6.300;2023-08-24T15:06:30;1.95;;;0.50;;
64367;SDS011;50692;53.314;-6.300;2023-08-24T15:09:16;1.30;;;0.43;;
64367;SDS011;50692;53.314;-6.300;2023-08-24T15:12:02;1.00;;;0.50;;
64367;SDS011;50692;53.314;-6.300;2023-08-24T15:14:56;2.08;;;0.55;;
64367;SDS011;50692;53.314;-6.300;2023-08-24T15:17:45;1.50;;;0.50;;
64367;SDS011;50692;53.314;-6.300;2023-08-24T15:20:31;2.55;;;0.90;;
64367;SDS011;50692;53.314;-6.300;2023-08-24T15:23:27;0.47;;;0.40;;
64367;SDS011;50692;53.314;-6.300;2023-08-24T15:26:14;1.58;;;0.75;;
64367;SDS011;50692;53.314;-6.300;2023-08-24T15:29:06;2.50;;;0.50;;
64367;SDS011;50692;53.314;-6.300;2023-08-24T15:32:03;0.45;;;0.38;;
64367;SDS011;50692;53.314;-6.300;2023-08-24T15:34:49;1.13;;;0.47;;
64367;SDS011;50692;53.314;-6.300;2023-08-24T15:37:35;0.88;;;0.50;;
64367;SDS011;50692;53.314;-6.300;2023-08-24T15:40:21;2.58;;;0.52;;
64367;SDS011;50692;53.314;-6.300;2023-08-24T15:43:06;0.57;;;0.50;;
64367;SDS011;50692;53.314;-6.300;2023-08-24T15:45:52;1.95;;;0.77;;
64367;SDS011;50692;53.314;-6.300;2023-08-24T15:48:38;1.73;;;0.60;;
64367;SDS011;50692;53.314;-6.300;2023-08-24T15:51:25;1.05;;;0.55;;
64367;SDS011;50692;53.314;-6.300;2023-08-24T15:54:10;0.77;;;0.30;;
64367;SDS011;50692;53.314;-6.300;2023-08-24T15:56:56;1.45;;;0.50;;
64367;SDS011;50692;53.314;-6.300;2023-08-24T15:59:44;0.70;;;0.40;;
64367;SDS011;50692;53.314;-6.300;2023-08-24T16:02:30;1.52;;;0.52;;
64367;SDS011;50692;53.314;-6.300;2023-08-24T16:05:15;1.02;;;0.40;;
64367;SDS011;50692;53.314;-6.300;2023-08-24T16:08:01;0.82;;;0.43;;
64367;SDS011;50692;53.314;-6.300;2023-08-24T16:10:47;1.40;;;0.50;;
64367;SDS011;50692;53.314;-6.300;2023-08-24T16:13:33;1.23;;;0.47;;
64367;SDS011;50692;53.314;-6.300;2023-08-24T16:16:19;1.65;;;0.40;;
64367;SDS011;50692;53.314;-6.300;2023-08-24T16:19:04;1.58;;;0.40;;
64367;SDS011;50692;53.314;-6.300;2023-08-24T16:21:50;3.28;;;0.40;;
64367;SDS011;50692;53.314;-6.300;2023-08-24T16:24:37;2.67;;;0.57;;
64367;SDS011;50692;53.314;-6.300;2023-08-24T16:27:23;1.73;;;0.60;;
64367;SDS011;50692;53.314;-6.300;2023-08-24T16:30:09;1.00;;;0.60;;
64367;SDS011;50692;53.314;-6.300;2023-08-24T16:32:55;1.10;;;0.50;;
64367;SDS011;50692;53.314;-6.300;2023-08-24T16:35:41;0.77;;;0.45;;
64367;SDS011;50692;53.314;-6.300;2023-08-24T16:38:29;0.40;;;0.30;;